createdAt,value
2019-04-28T00:01:43.328Z,5.05
2019-04-28T00:04:12.419Z,5.17
2019-04-28T00:06:41.741Z,3.95
2019-04-28T00:09:11.735Z,4.53
2019-04-28T00:11:41.714Z,4.20
2019-04-28T00:14:11.980Z,3.65
2019-04-28T00:16:41.352Z,4.30
2019-04-28T00:19:11.061Z,4.63
2019-04-28T00:21:41.714Z,4.37
2019-04-28T00:24:23.649Z,4.57
2019-04-28T00:27:01.658Z,4.55
2019-04-28T00:29:38.593Z,3.80
2019-04-28T00:32:01.744Z,4.58
2019-04-28T00:34:31.123Z,4.30
2019-04-28T00:37:01.474Z,4.60
2019-04-28T00:39:31.008Z,4.00
2019-04-28T00:42:03.090Z,2.80
2019-04-28T00:44:31.451Z,3.40
2019-04-28T00:47:01.170Z,4.10
2019-04-28T00:49:48.796Z,4.45
2019-04-28T00:52:18.869Z,3.30
2019-04-28T00:54:47.751Z,3.62
2019-04-28T00:57:17.264Z,3.03
2019-04-28T00:59:55.161Z,4.40
2019-04-28T01:02:27.022Z,3.62
2019-04-28T01:04:57.043Z,3.12
2019-04-28T01:07:25.819Z,4.42
2019-04-28T01:09:54.710Z,3.02
2019-04-28T01:12:23.391Z,4.03
2019-04-28T01:14:52.881Z,3.87
2019-04-28T01:17:29.606Z,4.37
2019-04-28T01:19:59.894Z,3.98
2019-04-28T01:22:30.070Z,4.70
2019-04-28T01:24:59.597Z,3.80
2019-04-28T01:27:30.473Z,4.03
2019-04-28T01:30:07.828Z,3.60
2019-04-28T01:32:33.347Z,4.03
2019-04-28T01:35:02.278Z,5.00
2019-04-28T01:37:31.344Z,4.37
2019-04-28T01:39:59.914Z,4.70
2019-04-28T01:42:30.254Z,4.37
2019-04-28T01:45:00.622Z,4.22
2019-04-28T01:47:30.551Z,3.95
2019-04-28T01:50:00.221Z,5.23
2019-04-28T01:52:30.362Z,4.77
2019-04-28T01:55:00.428Z,4.55
2019-04-28T01:57:30.353Z,4.07
2019-04-28T01:59:59.734Z,3.85
2019-04-28T02:02:30.070Z,4.08
2019-04-28T02:05:04.370Z,3.87
2019-04-28T02:07:40.585Z,4.25
2019-04-28T02:10:10.528Z,4.17
2019-04-28T02:12:40.315Z,3.95
2019-04-28T02:15:10.460Z,4.08
2019-04-28T02:17:40.224Z,4.17
2019-04-28T02:20:10.527Z,4.57
2019-04-28T02:22:41.238Z,3.93
2019-04-28T02:25:10.651Z,4.25
2019-04-28T02:27:40.084Z,4.12
2019-04-28T02:30:11.383Z,4.70
2019-04-28T02:32:40.890Z,3.72
2019-04-28T02:35:11.426Z,4.40
2019-04-28T02:37:40.743Z,3.63
2019-04-28T02:40:10.676Z,5.43
2019-04-28T02:42:40.926Z,4.72
2019-04-28T02:45:11.911Z,5.33
2019-04-28T02:47:41.977Z,4.20
2019-04-28T02:50:24.617Z,4.30
2019-04-28T02:52:56.278Z,3.98
2019-04-28T02:55:25.193Z,4.00
2019-04-28T02:57:55.079Z,4.50
2019-04-28T03:00:34.422Z,4.33
2019-04-28T03:03:03.299Z,4.60
2019-04-28T03:05:33.428Z,4.85
2019-04-28T03:08:02.824Z,4.63
2019-04-28T03:10:32.022Z,5.17
2019-04-28T03:13:01.436Z,4.10
2019-04-28T03:15:30.649Z,4.75
2019-04-28T03:18:01.846Z,4.77
2019-04-28T03:20:30.793Z,4.10
2019-04-28T03:23:00.980Z,4.95
2019-04-28T03:25:40.774Z,4.63
2019-04-28T03:28:16.264Z,4.35
2019-04-28T03:30:53.290Z,5.00
2019-04-28T03:33:25.321Z,7.00
2019-04-28T03:35:53.567Z,5.20
2019-04-28T03:38:22.014Z,4.97
2019-04-28T03:40:52.272Z,6.22
2019-04-28T03:43:21.367Z,4.20
2019-04-28T03:45:54.360Z,5.00
2019-04-28T03:48:23.143Z,4.40
2019-04-28T03:50:52.339Z,5.65
2019-04-28T03:53:21.368Z,5.22
2019-04-28T03:55:51.237Z,4.75
2019-04-28T03:58:24.637Z,5.15
2019-04-28T04:00:53.637Z,4.62
2019-04-28T04:03:22.627Z,5.13
2019-04-28T04:05:51.511Z,5.77
2019-04-28T04:08:21.090Z,5.07
2019-04-28T04:10:51.348Z,5.28
2019-04-28T04:13:24.424Z,3.90
2019-04-28T04:16:13.294Z,4.75
2019-04-28T04:18:43.810Z,4.57
2019-04-28T04:21:12.775Z,4.50
2019-04-28T04:23:41.596Z,5.20
2019-04-28T04:26:11.726Z,4.58
2019-04-28T04:28:41.604Z,4.30
2019-04-28T04:31:11.040Z,4.95
2019-04-28T04:33:41.011Z,4.37
2019-04-28T04:36:11.482Z,5.00
2019-04-28T04:38:46.057Z,5.22
2019-04-28T04:41:11.403Z,4.97
2019-04-28T04:43:41.501Z,4.70
2019-04-28T04:46:22.384Z,4.33
2019-04-28T04:48:51.413Z,5.15
2019-04-28T04:51:21.240Z,5.03
2019-04-28T04:53:51.090Z,5.30
2019-04-28T04:56:21.342Z,5.58
2019-04-28T04:58:50.928Z,4.95
2019-04-28T05:01:37.423Z,5.40
2019-04-28T05:04:20.238Z,4.60
2019-04-28T05:06:50.864Z,6.00
2019-04-28T05:09:19.691Z,5.27
2019-04-28T05:11:49.910Z,5.08
2019-04-28T05:14:19.818Z,5.27
2019-04-28T05:16:49.799Z,4.40
2019-04-28T05:19:24.734Z,4.62
2019-04-28T05:21:53.314Z,4.70
2019-04-28T05:24:30.394Z,4.40
2019-04-28T05:26:59.673Z,4.00
2019-04-28T05:29:32.140Z,4.37
2019-04-28T05:32:03.277Z,4.53
2019-04-28T05:34:31.792Z,4.40
2019-04-28T05:37:00.892Z,4.28
2019-04-28T05:39:29.849Z,3.50
2019-04-28T05:42:00.628Z,3.33
2019-04-28T05:44:29.943Z,4.00
2019-04-28T05:46:59.685Z,4.05
2019-04-28T05:49:49.798Z,3.60
2019-04-28T05:52:36.511Z,5.10
2019-04-28T05:55:10.730Z,3.92
2019-04-28T05:57:54.382Z,4.22
2019-04-28T06:00:49.899Z,4.40
2019-04-28T06:05:52.258Z,4.67
2019-04-28T06:08:22.995Z,4.42
2019-04-28T06:10:52.110Z,4.20
2019-04-28T06:13:20.667Z,3.90
2019-04-28T06:15:49.763Z,4.72
2019-04-28T06:18:20.671Z,3.90
2019-04-28T06:20:49.817Z,3.98
2019-04-28T06:23:18.696Z,3.77
2019-04-28T06:25:50.667Z,4.58
2019-04-28T06:28:22.536Z,4.93
2019-04-28T06:30:51.391Z,4.47
2019-04-28T06:33:19.974Z,3.60
2019-04-28T06:35:48.559Z,3.70
2019-04-28T06:38:17.339Z,5.03
2019-04-28T06:40:46.126Z,4.33
2019-04-28T06:43:16.254Z,3.60
2019-04-28T06:45:44.832Z,4.22
2019-04-28T06:48:13.722Z,4.70
2019-04-28T06:50:42.615Z,4.37
2019-04-28T06:53:11.699Z,4.20
2019-04-28T06:55:40.487Z,4.83
2019-04-28T06:58:09.378Z,4.06
2019-04-28T07:00:39.189Z,3.37
2019-04-28T07:03:12.981Z,3.65
2019-04-28T07:05:38.474Z,3.90
2019-04-28T07:08:07.291Z,3.75
2019-04-28T07:10:35.871Z,3.90
2019-04-28T07:13:05.478Z,3.70
2019-04-28T07:15:34.467Z,3.77
2019-04-28T07:18:04.133Z,3.72
2019-04-28T07:20:39.834Z,3.75
2019-04-28T07:23:09.843Z,4.27
2019-04-28T07:25:39.962Z,3.83
2019-04-28T07:28:08.950Z,3.03
2019-04-28T07:30:39.067Z,3.65
2019-04-28T07:33:09.005Z,3.27
2019-04-28T07:35:37.458Z,3.42
2019-04-28T07:38:06.858Z,3.25
2019-04-28T07:40:35.451Z,3.95
2019-04-28T07:43:04.330Z,3.45
2019-04-28T07:45:33.319Z,3.73
2019-04-28T07:48:05.391Z,3.00
2019-04-28T07:50:34.096Z,3.30
2019-04-28T07:53:10.630Z,3.17
2019-04-28T07:55:43.218Z,3.27
2019-04-28T07:58:12.008Z,3.80
2019-04-28T08:00:40.912Z,2.27
2019-04-28T08:03:09.685Z,2.60
2019-04-28T08:05:38.574Z,3.00
2019-04-28T08:08:07.586Z,3.27
2019-04-28T08:10:36.147Z,3.40
2019-04-28T08:13:23.823Z,2.78
2019-04-28T08:15:59.553Z,2.95
2019-04-28T08:18:31.480Z,3.58
2019-04-28T08:20:59.262Z,3.22
2019-04-28T08:23:28.261Z,2.42
2019-04-28T08:25:59.104Z,2.57
2019-04-28T08:28:29.729Z,3.27
2019-04-28T08:30:58.285Z,2.67
2019-04-28T08:33:28.459Z,3.87
2019-04-28T08:35:57.334Z,2.50
2019-04-28T08:38:26.000Z,2.85
2019-04-28T08:40:56.717Z,3.20
2019-04-28T08:43:25.835Z,3.10
2019-04-28T08:45:54.384Z,2.83
2019-04-28T08:48:24.610Z,3.10
2019-04-28T08:50:55.731Z,2.72
2019-04-28T08:53:24.431Z,2.97
2019-04-28T08:55:53.707Z,2.67
2019-04-28T08:58:22.628Z,3.17
2019-04-28T09:00:52.045Z,3.00
2019-04-28T09:03:23.578Z,2.67
2019-04-28T09:05:54.332Z,2.92
2019-04-28T09:08:23.354Z,2.60
2019-04-28T09:10:52.498Z,2.17
2019-04-28T09:13:23.523Z,2.60
2019-04-28T09:15:52.892Z,2.47
2019-04-28T09:18:25.843Z,1.60
2019-04-28T09:20:54.707Z,2.87
2019-04-28T09:23:25.368Z,2.47
2019-04-28T09:25:54.566Z,2.10
2019-04-28T09:28:23.659Z,2.93
2019-04-28T09:30:52.821Z,2.52
2019-04-28T09:33:22.248Z,2.15
2019-04-28T09:35:51.115Z,2.40
2019-04-28T09:38:20.004Z,2.73
2019-04-28T09:40:48.587Z,2.40
2019-04-28T09:43:19.236Z,2.77
2019-04-28T09:45:49.435Z,2.10
2019-04-28T09:48:18.527Z,2.50
2019-04-28T09:50:48.514Z,2.47
2019-04-28T09:53:17.634Z,2.00
2019-04-28T09:55:47.983Z,2.97
2019-04-28T09:58:17.446Z,2.55
2019-04-28T10:00:45.954Z,2.33
2019-04-28T10:03:15.040Z,1.98
2019-04-28T10:05:43.627Z,2.70
2019-04-28T10:08:12.508Z,2.47
2019-04-28T10:10:41.411Z,3.57
2019-04-28T10:13:10.296Z,3.30
2019-04-28T10:15:38.876Z,3.12
2019-04-28T10:18:09.116Z,2.77
2019-04-28T10:20:37.905Z,2.60
2019-04-28T10:23:06.463Z,2.20
2019-04-28T10:25:37.768Z,2.33
2019-04-28T10:28:06.686Z,2.67
2019-04-28T10:30:35.454Z,2.50
2019-04-28T10:33:05.662Z,3.20
2019-04-28T10:35:34.290Z,3.12
2019-04-28T10:38:03.201Z,2.60
2019-04-28T10:40:33.526Z,2.40
2019-04-28T10:43:02.799Z,3.42
2019-04-28T10:45:33.533Z,3.30
2019-04-28T10:48:02.756Z,2.03
2019-04-28T10:50:31.504Z,2.20
2019-04-28T10:53:00.098Z,2.70
2019-04-28T10:55:29.804Z,1.98
2019-04-28T10:58:00.229Z,2.35
2019-04-28T11:00:40.407Z,2.25
2019-04-28T11:03:10.400Z,2.62
2019-04-28T11:05:42.434Z,2.40
2019-04-28T11:08:23.331Z,3.33
2019-04-28T11:10:52.223Z,2.45
2019-04-28T11:13:22.672Z,1.70
2019-04-28T11:15:51.640Z,3.47
2019-04-28T11:18:22.701Z,2.83
2019-04-28T11:20:52.440Z,2.52
2019-04-28T11:23:23.227Z,2.22
2019-04-28T11:25:51.500Z,2.55
2019-04-28T11:28:21.751Z,2.90
2019-04-28T11:30:50.456Z,2.55
2019-04-28T11:33:29.699Z,1.85
2019-04-28T11:35:58.450Z,2.52
2019-04-28T11:38:27.312Z,2.90
2019-04-28T11:40:56.710Z,3.95
2019-04-28T11:43:25.398Z,1.72
2019-04-28T11:45:57.308Z,2.72
2019-04-28T11:48:26.150Z,2.10
2019-04-28T11:50:54.902Z,2.65
2019-04-28T11:53:23.734Z,2.67
2019-04-28T11:55:53.682Z,2.12
2019-04-28T11:58:24.167Z,1.90
2019-04-28T12:00:52.662Z,2.15
2019-04-28T12:03:23.384Z,2.47
2019-04-28T12:05:54.397Z,3.00
2019-04-28T12:08:23.985Z,3.00
2019-04-28T12:10:54.134Z,2.75
2019-04-28T12:13:28.110Z,3.10
2019-04-28T12:16:14.647Z,2.05
2019-04-28T12:19:00.354Z,2.27
2019-04-28T12:21:29.323Z,2.22
2019-04-28T12:23:58.338Z,2.42
2019-04-28T12:26:27.511Z,2.70
2019-04-28T12:28:56.503Z,2.50
2019-04-28T12:31:25.391Z,2.77
2019-04-28T12:33:53.974Z,2.40
2019-04-28T12:36:24.702Z,2.02
2019-04-28T12:38:53.698Z,2.58
2019-04-28T12:41:22.799Z,3.50
2019-04-28T12:43:52.007Z,2.87
2019-04-28T12:46:21.185Z,3.02
2019-04-28T12:48:53.246Z,2.17
2019-04-28T12:51:22.364Z,3.27
2019-04-28T12:53:52.460Z,2.05
2019-04-28T12:56:24.136Z,2.50
2019-04-28T12:58:54.229Z,2.50
2019-04-28T13:01:24.579Z,2.80
2019-04-28T13:04:12.309Z,3.22
2019-04-28T13:06:41.104Z,3.40
2019-04-28T13:09:09.787Z,3.23
2019-04-28T13:11:42.003Z,2.47
2019-04-28T13:14:10.514Z,2.73
2019-04-28T13:16:41.244Z,2.80
2019-04-28T13:19:10.334Z,3.10
2019-04-28T13:21:38.922Z,2.35
2019-04-28T13:24:08.015Z,2.42
2019-04-28T13:26:36.606Z,2.45
2019-04-28T13:29:06.222Z,2.55
2019-04-28T13:31:34.849Z,2.37
2019-04-28T13:34:05.870Z,2.60
2019-04-28T13:36:34.298Z,2.62
2019-04-28T13:39:04.627Z,2.58
2019-04-28T13:41:37.103Z,2.20
2019-04-28T13:44:07.644Z,2.40
2019-04-28T13:46:36.207Z,2.45
2019-04-28T13:49:07.245Z,2.92
2019-04-28T13:51:36.395Z,2.87
2019-04-28T13:54:07.578Z,2.65
2019-04-28T13:56:36.781Z,2.72
2019-04-28T13:59:08.556Z,2.66
2019-04-28T14:01:44.592Z,3.47
2019-04-28T14:04:15.157Z,2.60
2019-04-28T14:06:45.231Z,2.83
2019-04-28T14:09:16.168Z,3.52
2019-04-28T14:11:44.765Z,3.37
2019-04-28T14:14:14.085Z,2.63
2019-04-28T14:16:43.353Z,3.40
2019-04-28T14:19:12.359Z,3.40
2019-04-28T14:21:40.931Z,2.95
2019-04-28T14:24:09.512Z,3.70
2019-04-28T14:26:40.110Z,3.13
2019-04-28T14:29:08.558Z,3.67
2019-04-28T14:31:37.162Z,4.62
2019-04-28T14:34:05.894Z,3.98
2019-04-28T14:36:41.817Z,4.07
2019-04-28T14:39:08.668Z,3.50
2019-04-28T14:41:38.924Z,4.50
2019-04-28T14:44:09.021Z,3.40
2019-04-28T14:46:37.634Z,4.25
2019-04-28T14:49:06.694Z,3.02
2019-04-28T14:51:35.599Z,2.57
2019-04-28T14:54:05.599Z,3.50
2019-04-28T14:56:34.193Z,3.12
2019-04-28T14:59:04.931Z,2.90
2019-04-28T15:01:37.344Z,3.10
2019-04-28T15:04:07.820Z,3.20
2019-04-28T15:06:55.405Z,2.45
2019-04-28T15:09:19.642Z,3.20
2019-04-28T15:11:50.583Z,3.35
2019-04-28T15:14:19.371Z,2.80
2019-04-28T15:16:48.539Z,2.80
2019-04-28T15:19:18.710Z,3.25
2019-04-28T15:21:48.882Z,3.12
2019-04-28T15:24:18.082Z,2.60
2019-04-28T15:26:46.784Z,3.62
2019-04-28T15:29:15.649Z,2.92
2019-04-28T15:31:44.980Z,3.20
2019-04-28T15:34:13.529Z,2.70
2019-04-28T15:36:42.546Z,3.07
2019-04-28T15:39:12.344Z,2.70
2019-04-28T15:41:41.323Z,3.30
2019-04-28T15:44:10.033Z,2.55
2019-04-28T15:46:38.926Z,2.90
2019-04-28T15:49:07.792Z,2.40
2019-04-28T15:51:36.387Z,2.60
2019-04-28T15:54:05.776Z,2.25
2019-04-28T15:56:39.070Z,3.65
2019-04-28T15:59:08.079Z,3.33
2019-04-28T16:01:36.867Z,3.80
2019-04-28T16:04:06.982Z,3.14
2019-04-28T16:06:36.054Z,7.08
2019-04-28T16:09:08.737Z,5.95
2019-04-28T16:11:38.554Z,6.07
2019-04-28T16:14:07.251Z,6.90
2019-04-28T16:16:36.857Z,4.28
2019-04-28T16:19:07.362Z,4.25
2019-04-28T16:21:36.205Z,7.97
2019-04-28T16:24:07.126Z,6.86
2019-04-28T16:26:35.907Z,3.58
2019-04-28T16:29:05.553Z,5.63
2019-04-28T16:31:34.904Z,6.37
2019-04-28T16:34:03.986Z,6.00
2019-04-28T16:36:34.090Z,5.90
2019-04-28T16:39:02.689Z,2.55
2019-04-28T16:41:33.039Z,2.33
2019-04-28T16:44:02.506Z,2.35
2019-04-28T16:46:31.491Z,2.55
2019-04-28T16:49:00.282Z,2.90
2019-04-28T16:51:29.469Z,4.30
2019-04-28T16:53:58.183Z,2.40
2019-04-28T16:56:47.214Z,2.40
2019-04-28T16:59:17.772Z,2.73
2019-04-28T17:01:51.251Z,2.30
2019-04-28T17:04:21.699Z,2.95
2019-04-28T17:06:52.099Z,2.72
2019-04-28T17:09:21.796Z,2.93
2019-04-28T17:11:50.875Z,2.40
2019-04-28T17:14:19.920Z,2.40
2019-04-28T17:16:49.098Z,2.87
2019-04-28T17:19:18.175Z,2.58
2019-04-28T17:21:47.071Z,2.35
2019-04-28T17:24:17.631Z,2.13
2019-04-28T17:26:46.723Z,2.67
2019-04-28T17:29:15.503Z,2.97
2019-04-28T17:31:44.268Z,3.00
2019-04-28T17:34:13.311Z,2.92
2019-04-28T17:36:42.558Z,3.17
2019-04-28T17:39:19.142Z,3.03
2019-04-28T17:41:48.246Z,3.02
2019-04-28T17:44:17.456Z,2.42
2019-04-28T17:46:46.434Z,3.57
2019-04-28T17:49:15.090Z,3.47
2019-04-28T17:51:44.095Z,3.13
2019-04-28T17:54:13.282Z,3.30
2019-04-28T17:56:42.182Z,3.60
2019-04-28T17:59:12.314Z,3.37
2019-04-28T18:01:49.076Z,3.30
2019-04-28T18:04:25.529Z,3.13
2019-04-28T18:07:11.002Z,8.23
2019-04-28T18:09:40.210Z,3.20
2019-04-28T18:12:08.791Z,3.37
2019-04-28T18:14:38.495Z,3.45
2019-04-28T18:17:25.446Z,4.30
2019-04-28T18:19:54.598Z,3.60
2019-04-28T18:22:23.495Z,2.90
2019-04-28T18:24:52.404Z,4.00
2019-04-28T18:27:21.279Z,3.98
2019-04-28T18:29:51.609Z,3.77
2019-04-28T18:32:24.811Z,4.13
2019-04-28T18:35:10.774Z,6.95
2019-04-28T18:37:57.605Z,3.62
2019-04-28T18:40:28.133Z,12.93
2019-04-28T18:43:07.364Z,6.97
2019-04-28T18:45:36.439Z,5.28
2019-04-28T18:48:06.561Z,4.22
2019-04-28T18:50:35.876Z,4.30
2019-04-28T18:53:06.386Z,4.35
2019-04-28T18:55:35.270Z,4.10
2019-04-28T18:58:05.398Z,3.77
2019-04-28T19:00:37.654Z,4.40
2019-04-28T19:03:07.386Z,3.85
2019-04-28T19:05:38.100Z,4.40
2019-04-28T19:08:08.420Z,3.70
2019-04-28T19:10:41.815Z,3.72
2019-04-28T19:13:18.379Z,3.50
2019-04-28T19:16:07.135Z,3.05
2019-04-28T19:18:40.330Z,4.00
2019-04-28T19:21:08.914Z,4.70
2019-04-28T19:23:37.494Z,3.95
2019-04-28T19:26:08.332Z,3.80
2019-04-28T19:28:37.348Z,3.85
2019-04-28T19:31:06.653Z,3.65
2019-04-28T19:33:35.634Z,3.30
2019-04-28T19:36:05.828Z,3.58
2019-04-28T19:38:34.413Z,4.30
2019-04-28T19:41:03.298Z,4.28
2019-04-28T19:43:31.887Z,4.05
2019-04-28T19:46:02.514Z,3.77
2019-04-28T19:48:31.402Z,3.43
2019-04-28T19:51:00.292Z,3.00
2019-04-28T19:53:31.723Z,3.92
2019-04-28T19:56:03.906Z,3.63
2019-04-28T19:58:37.610Z,4.28
2019-04-28T20:01:07.830Z,4.50
2019-04-28T20:03:36.413Z,4.10
2019-04-28T20:06:06.218Z,8.43
2019-04-28T20:08:34.811Z,7.80
2019-04-28T20:11:03.691Z,7.42
2019-04-28T20:13:32.478Z,6.33
2019-04-28T20:16:01.367Z,6.97
2019-04-28T20:18:30.258Z,7.33
2019-04-28T20:20:59.154Z,7.30
2019-04-28T20:23:27.832Z,6.42
2019-04-28T20:25:56.414Z,7.12
2019-04-28T20:28:25.001Z,9.50
2019-04-28T20:30:54.094Z,9.40
2019-04-28T20:33:25.232Z,9.33
2019-04-28T20:35:58.120Z,10.30
2019-04-28T20:38:31.199Z,9.47
2019-04-28T20:41:10.126Z,8.95
2019-04-28T20:43:38.710Z,13.25
2019-04-28T20:46:07.290Z,13.88
2019-04-28T20:48:36.182Z,13.93
2019-04-28T20:51:06.915Z,14.62
2019-04-28T20:53:35.505Z,12.88
2019-04-28T20:56:05.514Z,10.80
2019-04-28T20:58:34.709Z,9.85
2019-04-28T21:01:03.415Z,8.40
2019-04-28T21:03:31.970Z,7.22
2019-04-28T21:06:01.606Z,6.60
2019-04-28T21:08:30.058Z,6.55
2019-04-28T21:10:58.642Z,6.30
2019-04-28T21:13:27.329Z,5.60
2019-04-28T21:15:56.648Z,5.25
2019-04-28T21:18:25.410Z,5.15
2019-04-28T21:20:54.502Z,4.72
2019-04-28T21:23:23.403Z,5.30
2019-04-28T21:25:52.599Z,5.50
2019-04-28T21:28:21.278Z,8.40
2019-04-28T21:30:51.428Z,8.25
2019-04-28T21:33:20.182Z,7.40
2019-04-28T21:35:48.967Z,8.30
2019-04-28T21:38:17.963Z,8.78
2019-04-28T21:40:46.599Z,8.43
2019-04-28T21:43:17.171Z,8.90
2019-04-28T21:46:02.984Z,10.57
2019-04-28T21:48:42.290Z,11.87
2019-04-28T21:51:12.445Z,12.50
2019-04-28T21:53:41.090Z,11.10
2019-04-28T21:56:10.342Z,11.48
2019-04-28T21:58:39.491Z,10.78
2019-04-28T22:01:09.191Z,10.65
2019-04-28T22:03:38.597Z,9.70
2019-04-28T22:06:07.183Z,7.85
2019-04-28T22:08:36.167Z,7.30
2019-04-28T22:11:06.806Z,6.76
2019-04-28T22:13:35.999Z,6.50
2019-04-28T22:16:06.020Z,6.30
2019-04-28T22:18:34.899Z,7.77
2019-04-28T22:21:03.482Z,7.10
2019-04-28T22:23:33.726Z,6.55
2019-04-28T22:26:02.491Z,6.77
2019-04-28T22:28:31.072Z,6.10
2019-04-28T22:31:00.062Z,7.28
2019-04-28T22:33:28.742Z,7.12
2019-04-28T22:35:57.335Z,7.22
2019-04-28T22:38:25.911Z,7.25
2019-04-28T22:40:54.494Z,7.05
2019-04-28T22:43:23.590Z,7.10
2019-04-28T22:45:52.581Z,6.67
2019-04-28T22:48:23.541Z,7.53
2019-04-28T22:50:53.328Z,7.97
2019-04-28T22:53:23.446Z,8.07
2019-04-28T22:56:12.224Z,7.50
2019-04-28T22:58:45.083Z,7.42
2019-04-28T23:01:15.206Z,7.60
2019-04-28T23:03:45.654Z,8.63
2019-04-28T23:06:14.744Z,8.50
2019-04-28T23:08:43.714Z,9.10
2019-04-28T23:11:12.603Z,8.00
2019-04-28T23:13:41.496Z,8.67
2019-04-28T23:16:10.196Z,7.65
2019-04-28T23:18:38.759Z,8.10
2019-04-28T23:21:08.875Z,8.23
2019-04-28T23:23:37.769Z,8.80
2019-04-28T23:26:07.270Z,9.48
2019-04-28T23:28:36.258Z,9.10
2019-04-28T23:31:06.478Z,7.90
2019-04-28T23:33:35.367Z,7.30
2019-04-28T23:36:03.958Z,6.80
2019-04-28T23:38:32.530Z,7.70
2019-04-28T23:41:02.756Z,7.72
2019-04-28T23:43:31.747Z,6.72
2019-04-28T23:46:00.838Z,6.90
2019-04-28T23:48:29.728Z,6.83
2019-04-28T23:51:09.270Z,7.77
2019-04-28T23:53:55.978Z,6.63
2019-04-28T23:56:24.867Z,6.78
2019-04-28T23:58:53.442Z,6.05
